createdAt,value
2019-01-12T00:01:14.275Z,54.32
2019-01-12T00:03:14.325Z,53.92
2019-01-12T00:07:14.292Z,54.28
2019-01-12T00:09:14.351Z,54.23
2019-01-12T00:13:14.330Z,54.19
2019-01-12T00:15:14.353Z,54.13
2019-01-12T00:19:14.313Z,53.90
2019-01-12T00:21:19.416Z,54.00
2019-01-12T00:25:14.312Z,54.17
2019-01-12T00:27:14.339Z,54.26
2019-01-12T00:31:14.315Z,53.79
2019-01-12T00:33:14.282Z,53.87
2019-01-12T00:37:14.321Z,53.95
2019-01-12T00:39:14.299Z,54.01
2019-01-12T00:43:14.364Z,53.80
2019-01-12T00:45:18.698Z,53.68
2019-01-12T00:49:14.325Z,53.96
2019-01-12T00:51:18.133Z,53.79
2019-01-12T00:55:14.368Z,53.55
2019-01-12T00:57:14.369Z,53.88
2019-01-12T01:01:14.315Z,53.84
2019-01-12T01:03:14.374Z,53.55
2019-01-12T01:07:14.359Z,53.78
2019-01-12T01:09:14.323Z,53.69
2019-01-12T01:13:14.350Z,53.71
2019-01-12T01:15:14.319Z,53.43
2019-01-12T01:19:14.340Z,53.31
2019-01-12T01:21:14.308Z,53.41
2019-01-12T01:25:14.545Z,52.98
2019-01-12T01:27:14.310Z,53.06
2019-01-12T01:31:14.390Z,52.90
2019-01-12T01:33:14.367Z,53.25
2019-01-12T01:37:14.369Z,52.98
2019-01-12T01:39:14.398Z,52.86
2019-01-12T01:43:14.365Z,52.92
2019-01-12T01:45:14.337Z,53.04
2019-01-12T01:49:14.356Z,52.95
2019-01-12T01:51:14.389Z,52.95
2019-01-12T01:55:14.372Z,53.10
2019-01-12T01:57:18.728Z,53.13
2019-01-12T02:01:14.379Z,52.95
2019-01-12T02:03:18.776Z,52.98
2019-01-12T02:07:14.372Z,53.09
2019-01-12T02:09:14.378Z,53.16
2019-01-12T02:13:14.367Z,53.03
2019-01-12T02:15:14.386Z,52.76
2019-01-12T02:19:14.377Z,52.64
2019-01-12T02:21:14.357Z,52.99
2019-01-12T02:25:14.349Z,52.87
2019-01-12T02:27:14.356Z,52.83
2019-01-12T02:31:14.363Z,52.88
2019-01-12T02:33:14.387Z,52.44
2019-01-12T02:37:14.366Z,52.54
2019-01-12T02:39:14.345Z,52.52
2019-01-12T02:43:19.455Z,52.52
2019-01-12T02:45:14.376Z,52.56
2019-01-12T02:49:14.414Z,52.46
2019-01-12T02:51:14.399Z,52.62
2019-01-12T02:55:19.409Z,52.42
2019-01-12T02:57:14.404Z,52.61
2019-01-12T03:01:14.391Z,52.72
2019-01-12T03:03:14.405Z,52.34
2019-01-12T03:07:14.388Z,52.35
2019-01-12T03:09:14.399Z,52.31
2019-01-12T03:13:19.440Z,52.53
2019-01-12T03:15:14.379Z,52.48
2019-01-12T03:19:18.138Z,52.15
2019-01-12T03:21:14.409Z,52.35
2019-01-12T03:25:18.502Z,52.13
2019-01-12T03:27:14.427Z,52.40
2019-01-12T03:31:14.390Z,52.30
2019-01-12T03:33:14.416Z,52.20
2019-01-12T03:37:14.391Z,52.19
2019-01-12T03:39:14.451Z,52.18
2019-01-12T03:43:14.412Z,52.33
2019-01-12T03:45:14.419Z,52.00
2019-01-12T03:49:14.430Z,52.00
2019-01-12T03:51:14.415Z,52.03
2019-01-12T03:55:14.437Z,51.75
2019-01-12T03:57:14.467Z,51.68
2019-01-12T04:01:14.426Z,51.68
2019-01-12T04:03:14.448Z,51.64
2019-01-12T04:07:14.409Z,51.59
2019-01-12T04:09:14.434Z,51.40
2019-01-12T04:13:14.453Z,51.49
2019-01-12T04:15:19.511Z,51.48
2019-01-12T04:19:14.428Z,51.37
2019-01-12T04:21:14.411Z,51.22
2019-01-12T04:25:14.434Z,51.29
2019-01-12T04:27:14.434Z,51.32
2019-01-12T04:31:14.419Z,51.29
2019-01-12T04:33:14.435Z,51.27
2019-01-12T04:37:14.424Z,51.33
2019-01-12T04:39:14.441Z,51.27
2019-01-12T04:43:14.453Z,51.10
2019-01-12T04:45:14.482Z,51.12
2019-01-12T04:49:19.513Z,51.25
2019-01-12T04:51:14.451Z,51.31
2019-01-12T04:55:14.478Z,51.14
2019-01-12T04:57:14.486Z,51.37
2019-01-12T05:01:18.842Z,51.22
2019-01-12T05:03:20.114Z,51.23
2019-01-12T05:07:14.416Z,51.23
2019-01-12T05:09:14.476Z,51.27
2019-01-12T05:13:14.443Z,51.21
2019-01-12T05:15:14.476Z,51.10
2019-01-12T05:19:14.473Z,50.93
2019-01-12T05:21:14.527Z,50.99
2019-01-12T05:25:14.484Z,51.03
2019-01-12T05:27:14.466Z,51.03
2019-01-12T05:31:14.493Z,51.01
2019-01-12T05:33:14.449Z,50.87
2019-01-12T05:37:14.473Z,50.77
2019-01-12T05:39:14.493Z,50.80
2019-01-12T05:43:15.979Z,50.85
2019-01-12T05:45:14.520Z,50.52
2019-01-12T05:49:14.495Z,50.74
2019-01-12T05:51:14.507Z,50.65
2019-01-12T05:55:14.470Z,50.67
2019-01-12T05:57:14.484Z,50.58
2019-01-12T06:01:14.470Z,50.57
2019-01-12T06:03:19.574Z,50.49
2019-01-12T06:07:14.505Z,50.06
2019-01-12T06:09:14.457Z,49.99
2019-01-12T06:13:14.480Z,49.50
2019-01-12T06:15:14.496Z,49.70
2019-01-12T06:19:14.543Z,49.79
2019-01-12T06:21:14.521Z,49.48
2019-01-12T06:25:14.548Z,49.26
2019-01-12T06:27:14.485Z,49.03
2019-01-12T06:31:14.500Z,48.78
2019-01-12T06:33:14.518Z,48.87
2019-01-12T06:37:14.475Z,48.55
2019-01-12T06:39:14.451Z,48.38
2019-01-12T06:43:14.512Z,48.37
2019-01-12T06:45:14.498Z,48.14
2019-01-12T06:49:14.478Z,47.89
2019-01-12T06:51:14.502Z,47.72
2019-01-12T06:55:14.515Z,47.72
2019-01-12T06:57:14.507Z,47.03
2019-01-12T07:01:19.627Z,46.84
2019-01-12T07:03:19.647Z,46.83
2019-01-12T07:07:14.521Z,46.53
2019-01-12T07:09:14.530Z,46.07
2019-01-12T07:13:14.501Z,46.21
2019-01-12T07:15:18.962Z,45.80
2019-01-12T07:19:14.534Z,46.24
2019-01-12T07:21:14.516Z,46.33
2019-01-12T07:25:14.539Z,45.87
2019-01-12T07:27:14.509Z,45.95
2019-01-12T07:31:14.499Z,45.22
2019-01-12T07:33:14.545Z,45.56
2019-01-12T07:37:14.517Z,45.11
2019-01-12T07:39:14.552Z,45.10
2019-01-12T07:43:14.547Z,45.22
2019-01-12T07:45:14.537Z,45.67
2019-01-12T07:49:14.542Z,45.36
2019-01-12T07:51:22.262Z,44.83
2019-01-12T07:55:14.507Z,45.73
2019-01-12T07:57:14.528Z,45.85
2019-01-12T08:01:14.511Z,45.36
2019-01-12T08:03:14.547Z,46.22
2019-01-12T08:07:14.532Z,45.70
2019-01-12T08:09:14.564Z,46.09
2019-01-12T08:15:14.542Z,44.67
2019-01-12T08:17:14.522Z,45.51
2019-01-12T08:21:14.545Z,45.42
2019-01-12T08:23:14.563Z,45.07
2019-01-12T08:27:14.555Z,45.50
2019-01-12T08:29:14.780Z,45.18
2019-01-12T08:33:14.573Z,44.37
2019-01-12T08:35:14.496Z,45.00
2019-01-12T08:39:14.544Z,45.33
2019-01-12T08:41:14.579Z,44.97
2019-01-12T08:45:14.552Z,45.40
2019-01-12T08:47:14.550Z,45.87
2019-01-12T08:51:14.534Z,46.03
2019-01-12T08:53:14.555Z,46.07
2019-01-12T08:57:14.558Z,46.24
2019-01-12T08:59:14.541Z,46.28
2019-01-12T09:03:14.534Z,45.91
2019-01-12T09:05:14.568Z,45.94
2019-01-12T09:09:14.577Z,46.62
2019-01-12T09:11:14.518Z,46.54
2019-01-12T09:15:14.525Z,46.88
2019-01-12T09:17:14.547Z,46.53
2019-01-12T09:21:14.517Z,46.91
2019-01-12T09:23:14.600Z,46.93
2019-01-12T09:27:33.254Z,46.44
2019-01-12T09:29:14.543Z,46.83
2019-01-12T09:33:14.555Z,46.92
2019-01-12T09:35:14.582Z,46.85
2019-01-12T09:39:14.561Z,47.02
2019-01-12T09:41:14.573Z,46.71
2019-01-12T09:45:14.593Z,46.36
2019-01-12T09:47:14.609Z,46.90
2019-01-12T09:51:15.452Z,46.93
2019-01-12T09:53:19.633Z,46.44
2019-01-12T09:57:14.626Z,46.60
2019-01-12T09:59:16.677Z,46.05
2019-01-12T10:03:14.566Z,46.35
2019-01-12T10:05:14.597Z,46.49
2019-01-12T10:09:14.614Z,46.54
2019-01-12T10:11:14.550Z,46.59
2019-01-12T10:15:14.619Z,46.13
2019-01-12T10:17:14.623Z,46.50
2019-01-12T10:21:14.618Z,46.75
2019-01-12T10:23:14.599Z,46.67
2019-01-12T10:27:14.571Z,46.70
2019-01-12T10:29:14.640Z,46.88
2019-01-12T10:33:14.618Z,46.88
2019-01-12T10:35:14.593Z,46.95
2019-01-12T10:39:17.923Z,46.97
2019-01-12T10:41:14.620Z,46.95
2019-01-12T10:45:14.627Z,46.89
2019-01-12T10:47:14.621Z,46.80
2019-01-12T10:51:14.591Z,46.56
2019-01-12T10:53:14.619Z,46.67
2019-01-12T10:57:14.632Z,46.75
2019-01-12T10:59:19.817Z,46.75
2019-01-12T11:03:14.653Z,47.25
2019-01-12T11:05:14.613Z,46.90
2019-01-12T11:09:14.603Z,47.33
2019-01-12T11:11:14.615Z,47.23
2019-01-12T11:15:14.641Z,47.74
2019-01-12T11:17:14.616Z,47.88
2019-01-12T11:21:14.650Z,47.18
2019-01-12T11:23:14.635Z,47.44
2019-01-12T11:27:14.606Z,47.40
2019-01-12T11:29:14.596Z,47.50
2019-01-12T11:33:14.615Z,47.77
2019-01-12T11:35:14.605Z,48.31
2019-01-12T11:39:14.627Z,47.70
2019-01-12T11:41:14.628Z,47.78
2019-01-12T11:45:14.625Z,48.12
2019-01-12T11:47:14.635Z,48.24
2019-01-12T11:51:14.655Z,48.32
2019-01-12T11:53:14.649Z,48.55
2019-01-12T11:57:19.066Z,48.03
2019-01-12T11:59:14.629Z,48.17
2019-01-12T12:03:14.658Z,48.08
2019-01-12T12:05:14.633Z,48.61
2019-01-12T12:09:14.671Z,48.13
2019-01-12T12:11:14.628Z,48.74
2019-01-12T12:15:14.690Z,48.37
2019-01-12T12:17:14.629Z,47.98
2019-01-12T12:21:14.661Z,47.49
2019-01-12T12:23:14.638Z,47.66
2019-01-12T12:27:14.630Z,46.90
2019-01-12T12:29:14.659Z,47.36
2019-01-12T12:33:14.654Z,47.20
2019-01-12T12:35:14.663Z,46.67
2019-01-12T12:39:14.641Z,46.70
2019-01-12T12:41:14.646Z,46.48
2019-01-12T12:45:14.652Z,46.57
2019-01-12T12:47:14.693Z,46.81
2019-01-12T12:51:14.713Z,46.61
2019-01-12T12:53:14.706Z,46.71
2019-01-12T12:57:14.657Z,46.65
2019-01-12T12:59:14.661Z,46.92
2019-01-12T13:03:14.708Z,46.42
2019-01-12T13:05:14.691Z,47.03
2019-01-12T13:11:14.710Z,46.57
2019-01-12T13:13:14.730Z,46.53
2019-01-12T13:17:17.028Z,46.64
2019-01-12T13:19:14.687Z,46.57
2019-01-12T13:23:19.931Z,46.54
2019-01-12T13:25:19.750Z,46.92
2019-01-12T13:29:14.723Z,46.68
2019-01-12T13:31:14.694Z,46.67
2019-01-12T13:35:14.733Z,46.59
2019-01-12T13:37:14.729Z,46.71
2019-01-12T13:41:14.948Z,46.46
2019-01-12T13:43:14.718Z,46.73
2019-01-12T13:47:20.645Z,46.57
2019-01-12T13:49:14.742Z,46.06
2019-01-12T13:53:14.710Z,46.61
2019-01-12T13:55:14.763Z,46.42
2019-01-12T13:59:14.756Z,46.39
2019-01-12T14:01:14.760Z,45.87
2019-01-12T14:07:14.715Z,46.04
2019-01-12T14:09:14.744Z,45.84
2019-01-12T14:13:19.853Z,46.12
2019-01-12T14:15:14.733Z,46.02
2019-01-12T14:19:14.715Z,46.16
2019-01-12T14:21:14.764Z,46.23
2019-01-12T14:25:32.786Z,45.74
2019-01-12T14:27:14.727Z,45.96
2019-01-12T14:31:14.716Z,46.50
2019-01-12T14:33:14.774Z,45.99
2019-01-12T14:37:14.745Z,46.38
2019-01-12T14:39:14.758Z,46.41
2019-01-12T14:43:14.762Z,46.60
2019-01-12T14:45:14.771Z,46.12
2019-01-12T14:49:14.732Z,45.80
2019-01-12T14:51:14.757Z,46.23
2019-01-12T14:55:14.783Z,46.94
2019-01-12T14:57:14.729Z,46.60
2019-01-12T15:01:15.868Z,46.00
2019-01-12T15:03:14.768Z,46.00
2019-01-12T15:07:14.791Z,46.04
2019-01-12T15:09:14.752Z,46.63
2019-01-12T15:13:14.783Z,46.67
2019-01-12T15:15:14.748Z,46.45
2019-01-12T15:19:14.768Z,46.23
2019-01-12T15:21:15.917Z,46.18
2019-01-12T15:25:14.807Z,46.97
2019-01-12T15:27:14.770Z,46.85
2019-01-12T15:31:14.777Z,46.44
2019-01-12T15:33:14.775Z,46.24
2019-01-12T15:37:14.786Z,45.94
2019-01-12T15:39:14.752Z,46.05
2019-01-12T15:43:19.791Z,46.01
2019-01-12T15:45:14.818Z,46.72
2019-01-12T15:49:14.823Z,46.63
2019-01-12T15:51:14.793Z,46.23
2019-01-12T15:55:14.805Z,46.71
2019-01-12T15:57:14.802Z,46.08
2019-01-12T16:01:15.901Z,46.51
2019-01-12T16:03:14.827Z,46.63
2019-01-12T16:07:14.764Z,46.37
2019-01-12T16:09:14.759Z,46.66
2019-01-12T16:13:14.830Z,47.32
2019-01-12T16:15:14.766Z,46.80
2019-01-12T16:19:14.813Z,47.08
2019-01-12T16:21:14.836Z,47.06
2019-01-12T16:25:14.788Z,47.73
2019-01-12T16:31:14.809Z,47.26
2019-01-12T16:33:21.229Z,47.47
2019-01-12T16:37:14.837Z,47.53
2019-01-12T16:39:19.938Z,47.39
2019-01-12T16:43:14.836Z,47.51
2019-01-12T16:45:15.718Z,47.26
2019-01-12T16:49:14.795Z,47.86
2019-01-12T16:51:14.800Z,47.58
2019-01-12T16:55:19.279Z,47.31
2019-01-12T16:57:14.843Z,47.19
2019-01-12T17:01:14.828Z,47.32
2019-01-12T17:03:14.824Z,46.55
2019-01-12T17:07:14.847Z,47.33
2019-01-12T17:09:14.800Z,48.54
2019-01-12T17:13:14.842Z,46.27
2019-01-12T17:15:14.824Z,47.02
2019-01-12T17:19:14.864Z,47.32
2019-01-12T17:21:14.848Z,46.81
2019-01-12T17:25:14.851Z,45.91
2019-01-12T17:27:14.843Z,45.80
2019-01-12T17:31:20.991Z,45.08
2019-01-12T17:33:14.835Z,44.38
2019-01-12T17:37:14.898Z,44.33
2019-01-12T17:39:14.842Z,43.92
2019-01-12T17:45:20.545Z,43.41
2019-01-12T17:47:14.854Z,43.58
2019-01-12T17:51:15.830Z,44.30
2019-01-12T17:53:19.338Z,42.90
2019-01-12T17:57:20.026Z,42.77
2019-01-12T17:59:14.873Z,43.82
2019-01-12T18:03:20.309Z,44.43
2019-01-12T18:05:15.909Z,44.70
2019-01-12T18:09:20.136Z,45.09
2019-01-12T18:11:15.095Z,44.70
2019-01-12T18:15:14.909Z,45.58
2019-01-12T18:17:14.872Z,45.18
2019-01-12T18:21:14.911Z,45.84
2019-01-12T18:23:20.132Z,46.03
2019-01-12T18:31:14.989Z,46.15
2019-01-12T18:33:20.092Z,46.50
2019-01-12T18:37:14.912Z,46.42
2019-01-12T18:39:15.059Z,46.69
2019-01-12T18:43:14.974Z,46.86
2019-01-12T18:45:15.055Z,46.75
2019-01-12T18:49:15.067Z,46.86
2019-01-12T18:51:15.009Z,47.16
2019-01-12T18:55:14.994Z,47.20
2019-01-12T18:57:19.948Z,48.09
2019-01-12T19:01:14.919Z,47.90
2019-01-12T19:03:15.051Z,48.08
2019-01-12T19:07:15.044Z,47.62
2019-01-12T19:09:20.096Z,47.63
2019-01-12T19:15:15.036Z,47.92
2019-01-12T19:17:16.104Z,47.84
2019-01-12T19:21:14.971Z,48.13
2019-01-12T19:23:15.014Z,47.95
2019-01-12T19:27:20.632Z,47.96
2019-01-12T19:29:18.904Z,47.81
2019-01-12T19:33:19.995Z,48.00
2019-01-12T19:35:15.160Z,47.82
2019-01-12T19:39:15.123Z,48.02
2019-01-12T19:41:17.345Z,48.63
2019-01-12T19:45:22.079Z,48.74
2019-01-12T19:47:15.177Z,48.54
2019-01-12T19:51:15.094Z,48.61
2019-01-12T19:53:14.974Z,48.66
2019-01-12T19:57:15.039Z,48.62
2019-01-12T19:59:15.020Z,48.34
2019-01-12T20:03:15.106Z,48.61
2019-01-12T20:05:14.962Z,49.12
2019-01-12T20:09:14.942Z,49.05
2019-01-12T20:11:14.960Z,49.18
2019-01-12T20:15:19.990Z,48.59
2019-01-12T20:17:15.074Z,48.74
2019-01-12T20:21:15.196Z,48.78
2019-01-12T20:23:15.043Z,49.34
2019-01-12T20:27:15.053Z,48.97
2019-01-12T20:29:21.324Z,48.71
2019-01-12T20:33:15.072Z,49.03
2019-01-12T20:35:15.011Z,49.17
2019-01-12T20:39:14.930Z,49.26
2019-01-12T20:41:17.900Z,49.26
2019-01-12T20:45:15.007Z,48.97
2019-01-12T20:47:15.798Z,48.85
2019-01-12T20:51:15.010Z,48.88
2019-01-12T20:53:15.137Z,48.87
2019-01-12T20:57:17.289Z,48.84
2019-01-12T20:59:17.084Z,49.15
2019-01-12T21:05:14.987Z,48.86
2019-01-12T21:07:15.066Z,48.87
2019-01-12T21:11:14.943Z,49.38
2019-01-12T21:13:15.117Z,48.71
2019-01-12T21:17:15.168Z,49.46
2019-01-12T21:19:14.972Z,49.05
2019-01-12T21:23:19.934Z,48.95
2019-01-12T21:25:16.049Z,49.13
2019-01-12T21:29:15.007Z,49.39
2019-01-12T21:31:14.985Z,49.15
2019-01-12T21:35:19.319Z,49.39
2019-01-12T21:37:15.030Z,49.17
2019-01-12T21:41:15.019Z,48.82
2019-01-12T21:43:15.008Z,49.20
2019-01-12T21:47:15.036Z,49.03
2019-01-12T21:49:19.664Z,49.42
2019-01-12T21:53:15.022Z,49.73
2019-01-12T21:55:15.007Z,49.19
2019-01-12T21:59:14.977Z,49.70
2019-01-12T22:01:14.979Z,49.58
2019-01-12T22:05:14.987Z,48.99
2019-01-12T22:07:14.959Z,49.72
2019-01-12T22:11:15.011Z,49.21
2019-01-12T22:13:15.006Z,49.46
2019-01-12T22:17:15.017Z,49.63
2019-01-12T22:19:15.021Z,49.56
2019-01-12T22:23:14.998Z,49.54
2019-01-12T22:25:14.991Z,48.55
2019-01-12T22:29:15.024Z,47.35
2019-01-12T22:31:15.025Z,47.33
2019-01-12T22:35:15.042Z,48.11
2019-01-12T22:37:15.015Z,47.96
2019-01-12T22:41:15.035Z,48.54
2019-01-12T22:43:15.027Z,48.28
2019-01-12T22:47:15.031Z,48.65
2019-01-12T22:49:16.417Z,48.48
2019-01-12T22:55:16.932Z,49.06
2019-01-12T22:57:15.014Z,49.63
2019-01-12T23:01:15.040Z,49.30
2019-01-12T23:03:15.050Z,49.39
2019-01-12T23:07:15.046Z,50.08
2019-01-12T23:09:15.043Z,49.86
2019-01-12T23:13:15.062Z,49.82
2019-01-12T23:15:15.013Z,50.34
2019-01-12T23:19:15.037Z,49.79
2019-01-12T23:21:15.082Z,50.29
2019-01-12T23:25:15.047Z,50.49
2019-01-12T23:27:17.137Z,50.06
2019-01-12T23:31:15.038Z,50.54
2019-01-12T23:33:17.406Z,50.72
2019-01-12T23:37:15.062Z,50.41
2019-01-12T23:39:15.056Z,50.79
2019-01-12T23:43:15.026Z,50.46
2019-01-12T23:45:15.077Z,50.74
2019-01-12T23:49:15.050Z,50.58
2019-01-12T23:51:15.074Z,50.81
2019-01-12T23:55:15.101Z,51.06
2019-01-12T23:57:15.069Z,51.19
